sensor_id;sensor_type;location;lat;lon;timestamp;P1;durP1;ratioP1;P2;durP2;ratioP2
71141;SDS011;58808;59.366;17.970;2022-10-31T00:01:12;6.78;;;3.78;;
71141;SDS011;58808;59.366;17.970;2022-10-31T00:03:40;4.55;;;3.35;;
71141;SDS011;58808;59.366;17.970;2022-10-31T00:06:06;4.85;;;3.20;;
71141;SDS011;58808;59.366;17.970;2022-10-31T00:08:32;6.93;;;3.28;;
71141;SDS011;58808;59.366;17.970;2022-10-31T00:10:57;3.47;;;3.10;;
71141;SDS011;58808;59.366;17.970;2022-10-31T00:13:23;8.88;;;3.22;;
71141;SDS011;58808;59.366;17.970;2022-10-31T00:15:49;4.60;;;3.33;;
71141;SDS011;58808;59.366;17.970;2022-10-31T00:18:15;7.82;;;3.60;;
71141;SDS011;58808;59.366;17.970;2022-10-31T00:20:40;6.65;;;3.50;;
71141;SDS011;58808;59.366;17.970;2022-10-31T00:23:06;5.00;;;2.92;;
71141;SDS011;58808;59.366;17.970;2022-10-31T00:25:33;6.97;;;2.92;;
71141;SDS011;58808;59.366;17.970;2022-10-31T00:28:01;8.20;;;3.90;;
71141;SDS011;58808;59.366;17.970;2022-10-31T00:30:27;8.57;;;3.15;;
71141;SDS011;58808;59.366;17.970;2022-10-31T00:32:52;7.07;;;3.40;;
71141;SDS011;58808;59.366;17.970;2022-10-31T00:35:18;8.68;;;3.47;;
71141;SDS011;58808;59.366;17.970;2022-10-31T00:37:44;4.97;;;3.28;;
71141;SDS011;58808;59.366;17.970;2022-10-31T00:40:09;5.90;;;3.50;;
71141;SDS011;58808;59.366;17.970;2022-10-31T00:42:35;7.15;;;3.17;;
71141;SDS011;58808;59.366;17.970;2022-10-31T00:45:01;4.82;;;3.20;;
71141;SDS011;58808;59.366;17.970;2022-10-31T00:47:27;6.95;;;3.33;;
71141;SDS011;58808;59.366;17.970;2022-10-31T00:49:53;6.22;;;3.13;;
71141;SDS011;58808;59.366;17.970;2022-10-31T00:52:18;5.30;;;3.15;;
71141;SDS011;58808;59.366;17.970;2022-10-31T00:54:44;7.25;;;3.50;;
71141;SDS011;58808;59.366;17.970;2022-10-31T00:57:09;3.95;;;2.78;;
71141;SDS011;58808;59.366;17.970;2022-10-31T00:59:35;8.32;;;3.50;;
71141;SDS011;58808;59.366;17.970;2022-10-31T01:02:01;4.15;;;2.40;;
71141;SDS011;58808;59.366;17.970;2022-10-31T01:04:26;5.20;;;2.72;;
71141;SDS011;58808;59.366;17.970;2022-10-31T01:06:52;4.78;;;3.38;;
71141;SDS011;58808;59.366;17.970;2022-10-31T01:09:17;4.13;;;2.60;;
71141;SDS011;58808;59.366;17.970;2022-10-31T01:11:43;6.93;;;2.92;;
71141;SDS011;58808;59.366;17.970;2022-10-31T01:14:09;5.97;;;2.83;;
71141;SDS011;58808;59.366;17.970;2022-10-31T01:16:35;5.00;;;2.80;;
71141;SDS011;58808;59.366;17.970;2022-10-31T01:19:01;3.65;;;2.92;;
71141;SDS011;58808;59.366;17.970;2022-10-31T01:21:28;4.55;;;2.70;;
71141;SDS011;58808;59.366;17.970;2022-10-31T01:23:55;4.28;;;2.80;;
71141;SDS011;58808;59.366;17.970;2022-10-31T01:26:22;7.30;;;3.20;;
71141;SDS011;58808;59.366;17.970;2022-10-31T01:28:53;4.18;;;2.67;;
71141;SDS011;58808;59.366;17.970;2022-10-31T01:31:20;6.13;;;2.50;;
71141;SDS011;58808;59.366;17.970;2022-10-31T01:33:47;6.60;;;3.00;;
71141;SDS011;58808;59.366;17.970;2022-10-31T01:38:44;3.95;;;2.67;;
71141;SDS011;58808;59.366;17.970;2022-10-31T01:41:11;3.70;;;2.40;;
71141;SDS011;58808;59.366;17.970;2022-10-31T01:46:34;5.20;;;2.47;;
71141;SDS011;58808;59.366;17.970;2022-10-31T01:49:04;3.97;;;2.50;;
71141;SDS011;58808;59.366;17.970;2022-10-31T01:51:35;8.02;;;2.83;;
71141;SDS011;58808;59.366;17.970;2022-10-31T01:54:05;5.72;;;3.10;;
71141;SDS011;58808;59.366;17.970;2022-10-31T01:56:33;6.35;;;2.83;;
71141;SDS011;58808;59.366;17.970;2022-10-31T01:59:03;4.68;;;2.95;;
71141;SDS011;58808;59.366;17.970;2022-10-31T02:01:36;8.57;;;3.00;;
71141;SDS011;58808;59.366;17.970;2022-10-31T02:04:02;4.38;;;2.88;;
71141;SDS011;58808;59.366;17.970;2022-10-31T02:06:37;4.70;;;2.50;;
71141;SDS011;58808;59.366;17.970;2022-10-31T02:09:08;6.35;;;2.70;;
71141;SDS011;58808;59.366;17.970;2022-10-31T02:11:34;4.88;;;2.95;;
71141;SDS011;58808;59.366;17.970;2022-10-31T02:14:02;7.43;;;3.03;;
71141;SDS011;58808;59.366;17.970;2022-10-31T02:16:28;3.88;;;2.03;;
71141;SDS011;58808;59.366;17.970;2022-10-31T02:18:54;9.07;;;2.83;;
71141;SDS011;58808;59.366;17.970;2022-10-31T02:27:11;5.28;;;2.80;;
71141;SDS011;58808;59.366;17.970;2022-10-31T02:29:57;9.10;;;2.78;;
71141;SDS011;58808;59.366;17.970;2022-10-31T02:37:50;8.68;;;2.80;;
71141;SDS011;58808;59.366;17.970;2022-10-31T02:40:27;4.95;;;3.00;;
71141;SDS011;58808;59.366;17.970;2022-10-31T02:45:55;8.93;;;3.03;;
71141;SDS011;58808;59.366;17.970;2022-10-31T02:48:27;6.53;;;3.33;;
71141;SDS011;58808;59.366;17.970;2022-10-31T02:50:55;7.72;;;2.72;;
71141;SDS011;58808;59.366;17.970;2022-10-31T02:53:25;6.97;;;3.05;;
71141;SDS011;58808;59.366;17.970;2022-10-31T02:55:56;10.80;;;3.60;;
71141;SDS011;58808;59.366;17.970;2022-10-31T02:58:43;9.15;;;2.85;;
71141;SDS011;58808;59.366;17.970;2022-10-31T03:01:20;5.13;;;2.78;;
71141;SDS011;58808;59.366;17.970;2022-10-31T03:12:28;8.30;;;2.83;;
71141;SDS011;58808;59.366;17.970;2022-10-31T03:15:32;5.70;;;2.70;;
71141;SDS011;58808;59.366;17.970;2022-10-31T03:17:58;4.35;;;2.88;;
71141;SDS011;58808;59.366;17.970;2022-10-31T03:20:41;8.50;;;2.92;;
71141;SDS011;58808;59.366;17.970;2022-10-31T03:23:12;7.03;;;2.92;;
71141;SDS011;58808;59.366;17.970;2022-10-31T03:25:41;6.55;;;2.58;;
71141;SDS011;58808;59.366;17.970;2022-10-31T03:28:08;9.82;;;2.97;;
71141;SDS011;58808;59.366;17.970;2022-10-31T03:30:38;6.40;;;2.85;;
71141;SDS011;58808;59.366;17.970;2022-10-31T03:33:07;7.18;;;2.80;;
71141;SDS011;58808;59.366;17.970;2022-10-31T03:35:36;8.80;;;3.05;;
71141;SDS011;58808;59.366;17.970;2022-10-31T03:38:05;6.47;;;2.53;;
71141;SDS011;58808;59.366;17.970;2022-10-31T03:40:31;9.45;;;3.05;;
71141;SDS011;58808;59.366;17.970;2022-10-31T03:43:03;7.53;;;2.67;;
71141;SDS011;58808;59.366;17.970;2022-10-31T03:45:33;11.70;;;2.38;;
71141;SDS011;58808;59.366;17.970;2022-10-31T03:48:04;5.63;;;2.75;;
71141;SDS011;58808;59.366;17.970;2022-10-31T03:50:33;8.20;;;2.92;;
71141;SDS011;58808;59.366;17.970;2022-10-31T03:53:26;10.50;;;2.78;;
71141;SDS011;58808;59.366;17.970;2022-10-31T03:56:19;8.18;;;2.75;;
71141;SDS011;58808;59.366;17.970;2022-10-31T03:58:58;4.43;;;2.13;;
71141;SDS011;58808;59.366;17.970;2022-10-31T04:01:30;7.32;;;2.95;;
71141;SDS011;58808;59.366;17.970;2022-10-31T04:03:59;6.15;;;2.65;;
71141;SDS011;58808;59.366;17.970;2022-10-31T04:06:26;10.18;;;2.30;;
71141;SDS011;58808;59.366;17.970;2022-10-31T04:08:53;6.50;;;2.58;;
71141;SDS011;58808;59.366;17.970;2022-10-31T04:11:25;5.97;;;2.63;;
71141;SDS011;58808;59.366;17.970;2022-10-31T04:14:01;7.53;;;2.78;;
71141;SDS011;58808;59.366;17.970;2022-10-31T04:16:29;10.07;;;2.60;;
71141;SDS011;58808;59.366;17.970;2022-10-31T04:18:55;7.20;;;2.50;;
71141;SDS011;58808;59.366;17.970;2022-10-31T04:21:26;9.52;;;2.70;;
71141;SDS011;58808;59.366;17.970;2022-10-31T04:23:55;8.48;;;3.03;;
71141;SDS011;58808;59.366;17.970;2022-10-31T04:26:21;8.65;;;2.50;;
71141;SDS011;58808;59.366;17.970;2022-10-31T04:28:46;9.60;;;2.42;;
71141;SDS011;58808;59.366;17.970;2022-10-31T04:31:12;7.18;;;2.20;;
71141;SDS011;58808;59.366;17.970;2022-10-31T04:33:39;17.45;;;2.55;;
71141;SDS011;58808;59.366;17.970;2022-10-31T04:36:04;6.68;;;2.55;;
71141;SDS011;58808;59.366;17.970;2022-10-31T04:38:30;8.23;;;2.58;;
71141;SDS011;58808;59.366;17.970;2022-10-31T04:40:56;6.85;;;2.08;;
71141;SDS011;58808;59.366;17.970;2022-10-31T04:43:21;7.65;;;2.25;;
71141;SDS011;58808;59.366;17.970;2022-10-31T04:45:47;5.90;;;2.00;;
71141;SDS011;58808;59.366;17.970;2022-10-31T04:48:13;10.70;;;2.55;;
71141;SDS011;58808;59.366;17.970;2022-10-31T04:50:38;5.95;;;2.72;;
71141;SDS011;58808;59.366;17.970;2022-10-31T04:53:04;10.95;;;2.83;;
71141;SDS011;58808;59.366;17.970;2022-10-31T04:55:30;7.95;;;2.50;;
71141;SDS011;58808;59.366;17.970;2022-10-31T04:57:56;10.93;;;3.28;;
71141;SDS011;58808;59.366;17.970;2022-10-31T05:00:22;10.35;;;2.85;;
71141;SDS011;58808;59.366;17.970;2022-10-31T05:02:48;11.82;;;2.90;;
71141;SDS011;58808;59.366;17.970;2022-10-31T05:05:16;9.35;;;3.08;;
71141;SDS011;58808;59.366;17.970;2022-10-31T05:07:43;13.05;;;3.50;;
71141;SDS011;58808;59.366;17.970;2022-10-31T05:10:13;9.63;;;2.72;;
71141;SDS011;58808;59.366;17.970;2022-10-31T05:12:51;13.35;;;3.33;;
71141;SDS011;58808;59.366;17.970;2022-10-31T05:15:18;12.90;;;4.20;;
71141;SDS011;58808;59.366;17.970;2022-10-31T05:17:45;10.60;;;3.75;;
71141;SDS011;58808;59.366;17.970;2022-10-31T05:20:12;14.32;;;3.83;;
71141;SDS011;58808;59.366;17.970;2022-10-31T05:22:48;14.25;;;4.15;;
71141;SDS011;58808;59.366;17.970;2022-10-31T05:25:15;12.30;;;3.97;;
71141;SDS011;58808;59.366;17.970;2022-10-31T05:27:43;28.77;;;6.13;;
71141;SDS011;58808;59.366;17.970;2022-10-31T05:30:10;18.85;;;5.40;;
71141;SDS011;58808;59.366;17.970;2022-10-31T05:32:40;21.77;;;5.90;;
71141;SDS011;58808;59.366;17.970;2022-10-31T05:35:11;24.58;;;5.25;;
71141;SDS011;58808;59.366;17.970;2022-10-31T05:37:38;27.65;;;5.53;;
71141;SDS011;58808;59.366;17.970;2022-10-31T05:40:05;31.88;;;6.35;;
71141;SDS011;58808;59.366;17.970;2022-10-31T05:42:32;23.55;;;5.22;;
71141;SDS011;58808;59.366;17.970;2022-10-31T05:44:58;36.63;;;5.60;;
71141;SDS011;58808;59.366;17.970;2022-10-31T05:47:24;58.30;;;5.93;;
71141;SDS011;58808;59.366;17.970;2022-10-31T05:49:50;54.05;;;5.82;;
71141;SDS011;58808;59.366;17.970;2022-10-31T05:52:16;47.60;;;6.35;;
71141;SDS011;58808;59.366;17.970;2022-10-31T05:54:42;39.85;;;5.43;;
71141;SDS011;58808;59.366;17.970;2022-10-31T05:57:08;33.83;;;5.78;;
71141;SDS011;58808;59.366;17.970;2022-10-31T05:59:33;54.78;;;5.65;;
71141;SDS011;58808;59.366;17.970;2022-10-31T06:01:59;54.80;;;5.85;;
71141;SDS011;58808;59.366;17.970;2022-10-31T06:04:25;127.35;;;6.57;;
71141;SDS011;58808;59.366;17.970;2022-10-31T06:06:50;45.88;;;6.20;;
71141;SDS011;58808;59.366;17.970;2022-10-31T06:09:16;74.28;;;7.22;;
71141;SDS011;58808;59.366;17.970;2022-10-31T06:11:42;49.90;;;6.00;;
71141;SDS011;58808;59.366;17.970;2022-10-31T06:14:07;45.38;;;6.90;;
71141;SDS011;58808;59.366;17.970;2022-10-31T06:16:33;47.95;;;6.20;;
71141;SDS011;58808;59.366;17.970;2022-10-31T06:18:59;48.03;;;8.43;;
71141;SDS011;58808;59.366;17.970;2022-10-31T06:21:24;24.80;;;6.05;;
71141;SDS011;58808;59.366;17.970;2022-10-31T06:23:50;29.90;;;6.03;;
71141;SDS011;58808;59.366;17.970;2022-10-31T06:26:16;34.88;;;6.75;;
71141;SDS011;58808;59.366;17.970;2022-10-31T06:28:42;22.52;;;6.03;;
71141;SDS011;58808;59.366;17.970;2022-10-31T06:31:07;23.00;;;6.60;;
71141;SDS011;58808;59.366;17.970;2022-10-31T06:33:33;32.47;;;6.20;;
71141;SDS011;58808;59.366;17.970;2022-10-31T06:35:59;19.92;;;5.50;;
71141;SDS011;58808;59.366;17.970;2022-10-31T06:38:26;26.42;;;5.78;;
71141;SDS011;58808;59.366;17.970;2022-10-31T06:40:52;29.38;;;6.68;;
71141;SDS011;58808;59.366;17.970;2022-10-31T06:43:19;37.67;;;6.90;;
71141;SDS011;58808;59.366;17.970;2022-10-31T06:45:45;42.92;;;6.22;;
71141;SDS011;58808;59.366;17.970;2022-10-31T06:48:11;30.70;;;6.10;;
71141;SDS011;58808;59.366;17.970;2022-10-31T06:50:37;35.70;;;6.25;;
71141;SDS011;58808;59.366;17.970;2022-10-31T06:53:03;49.80;;;8.20;;
71141;SDS011;58808;59.366;17.970;2022-10-31T06:55:28;18.42;;;5.78;;
71141;SDS011;58808;59.366;17.970;2022-10-31T06:57:55;24.13;;;5.85;;
71141;SDS011;58808;59.366;17.970;2022-10-31T07:00:22;21.98;;;5.80;;
71141;SDS011;58808;59.366;17.970;2022-10-31T07:02:58;30.42;;;7.03;;
71141;SDS011;58808;59.366;17.970;2022-10-31T07:05:26;25.95;;;6.72;;
71141;SDS011;58808;59.366;17.970;2022-10-31T07:07:54;20.85;;;6.22;;
71141;SDS011;58808;59.366;17.970;2022-10-31T07:10:21;37.45;;;7.13;;
71141;SDS011;58808;59.366;17.970;2022-10-31T07:12:47;38.60;;;6.80;;
71141;SDS011;58808;59.366;17.970;2022-10-31T07:15:13;28.38;;;7.18;;
71141;SDS011;58808;59.366;17.970;2022-10-31T07:17:38;32.83;;;7.25;;
71141;SDS011;58808;59.366;17.970;2022-10-31T07:20:04;31.30;;;7.65;;
71141;SDS011;58808;59.366;17.970;2022-10-31T07:22:34;34.55;;;7.30;;
71141;SDS011;58808;59.366;17.970;2022-10-31T07:25:01;38.05;;;7.32;;
71141;SDS011;58808;59.366;17.970;2022-10-31T07:27:27;44.38;;;7.18;;
71141;SDS011;58808;59.366;17.970;2022-10-31T07:29:52;37.70;;;8.23;;
71141;SDS011;58808;59.366;17.970;2022-10-31T07:32:18;37.08;;;7.88;;
71141;SDS011;58808;59.366;17.970;2022-10-31T07:34:44;38.95;;;8.85;;
71141;SDS011;58808;59.366;17.970;2022-10-31T07:37:10;39.35;;;8.48;;
71141;SDS011;58808;59.366;17.970;2022-10-31T07:39:35;54.03;;;8.88;;
71141;SDS011;58808;59.366;17.970;2022-10-31T07:42:01;73.65;;;9.13;;
71141;SDS011;58808;59.366;17.970;2022-10-31T07:44:27;49.47;;;9.05;;
71141;SDS011;58808;59.366;17.970;2022-10-31T07:46:52;36.42;;;9.40;;
71141;SDS011;58808;59.366;17.970;2022-10-31T07:49:18;44.75;;;9.05;;
71141;SDS011;58808;59.366;17.970;2022-10-31T07:51:43;35.50;;;8.85;;
71141;SDS011;58808;59.366;17.970;2022-10-31T07:54:12;40.17;;;8.57;;
71141;SDS011;58808;59.366;17.970;2022-10-31T07:56:38;32.65;;;9.13;;
71141;SDS011;58808;59.366;17.970;2022-10-31T07:59:07;44.92;;;9.98;;
71141;SDS011;58808;59.366;17.970;2022-10-31T08:01:32;45.45;;;8.80;;
71141;SDS011;58808;59.366;17.970;2022-10-31T08:03:58;40.13;;;9.60;;
71141;SDS011;58808;59.366;17.970;2022-10-31T08:06:24;38.33;;;9.20;;
71141;SDS011;58808;59.366;17.970;2022-10-31T08:08:50;34.92;;;9.35;;
71141;SDS011;58808;59.366;17.970;2022-10-31T08:11:15;39.50;;;9.00;;
71141;SDS011;58808;59.366;17.970;2022-10-31T08:13:41;38.45;;;9.23;;
71141;SDS011;58808;59.366;17.970;2022-10-31T08:16:08;45.00;;;9.38;;
71141;SDS011;58808;59.366;17.970;2022-10-31T08:18:33;32.03;;;8.50;;
71141;SDS011;58808;59.366;17.970;2022-10-31T08:21:02;35.40;;;9.73;;
71141;SDS011;58808;59.366;17.970;2022-10-31T08:23:28;30.58;;;9.48;;
71141;SDS011;58808;59.366;17.970;2022-10-31T08:25:53;35.83;;;10.40;;
71141;SDS011;58808;59.366;17.970;2022-10-31T08:28:19;39.28;;;10.20;;
71141;SDS011;58808;59.366;17.970;2022-10-31T08:30:44;39.05;;;10.10;;
71141;SDS011;58808;59.366;17.970;2022-10-31T08:33:15;36.67;;;9.93;;
71141;SDS011;58808;59.366;17.970;2022-10-31T08:35:42;43.67;;;10.10;;
71141;SDS011;58808;59.366;17.970;2022-10-31T08:38:12;36.15;;;10.07;;
71141;SDS011;58808;59.366;17.970;2022-10-31T08:40:38;38.88;;;11.93;;
71141;SDS011;58808;59.366;17.970;2022-10-31T08:43:05;37.97;;;10.65;;
71141;SDS011;58808;59.366;17.970;2022-10-31T08:45:34;38.80;;;11.10;;
71141;SDS011;58808;59.366;17.970;2022-10-31T08:48:00;32.92;;;10.38;;
71141;SDS011;58808;59.366;17.970;2022-10-31T08:50:30;36.40;;;11.15;;
71141;SDS011;58808;59.366;17.970;2022-10-31T08:53:01;35.70;;;10.32;;
71141;SDS011;58808;59.366;17.970;2022-10-31T08:55:36;30.80;;;10.10;;
71141;SDS011;58808;59.366;17.970;2022-10-31T08:58:03;33.50;;;9.57;;
71141;SDS011;58808;59.366;17.970;2022-10-31T09:00:31;30.23;;;9.88;;
71141;SDS011;58808;59.366;17.970;2022-10-31T09:02:58;24.48;;;9.07;;
71141;SDS011;58808;59.366;17.970;2022-10-31T09:05:25;30.40;;;9.10;;
71141;SDS011;58808;59.366;17.970;2022-10-31T09:07:54;30.33;;;9.52;;
71141;SDS011;58808;59.366;17.970;2022-10-31T09:10:21;26.33;;;10.27;;
71141;SDS011;58808;59.366;17.970;2022-10-31T09:12:47;30.70;;;10.80;;
71141;SDS011;58808;59.366;17.970;2022-10-31T09:15:19;28.15;;;11.45;;
71141;SDS011;58808;59.366;17.970;2022-10-31T09:17:48;24.08;;;9.60;;
71141;SDS011;58808;59.366;17.970;2022-10-31T09:20:13;32.45;;;10.48;;
71141;SDS011;58808;59.366;17.970;2022-10-31T09:22:39;22.88;;;10.38;;
71141;SDS011;58808;59.366;17.970;2022-10-31T09:25:05;22.60;;;9.35;;
71141;SDS011;58808;59.366;17.970;2022-10-31T09:27:31;23.65;;;9.27;;
71141;SDS011;58808;59.366;17.970;2022-10-31T09:29:56;22.90;;;8.48;;
71141;SDS011;58808;59.366;17.970;2022-10-31T09:32:22;22.95;;;9.20;;
71141;SDS011;58808;59.366;17.970;2022-10-31T09:34:48;19.23;;;8.55;;
71141;SDS011;58808;59.366;17.970;2022-10-31T09:37:13;21.75;;;9.05;;
71141;SDS011;58808;59.366;17.970;2022-10-31T09:39:39;18.90;;;10.80;;
71141;SDS011;58808;59.366;17.970;2022-10-31T09:42:26;19.88;;;8.75;;
71141;SDS011;58808;59.366;17.970;2022-10-31T09:45:04;20.75;;;9.30;;
71141;SDS011;58808;59.366;17.970;2022-10-31T09:50:38;20.50;;;9.57;;
71141;SDS011;58808;59.366;17.970;2022-10-31T09:53:23;22.13;;;9.38;;
71141;SDS011;58808;59.366;17.970;2022-10-31T09:55:56;20.58;;;8.52;;
71141;SDS011;58808;59.366;17.970;2022-10-31T09:58:24;18.77;;;9.10;;
71141;SDS011;58808;59.366;17.970;2022-10-31T10:00:53;22.33;;;9.50;;
71141;SDS011;58808;59.366;17.970;2022-10-31T10:03:31;19.48;;;9.88;;
71141;SDS011;58808;59.366;17.970;2022-10-31T10:08:43;16.42;;;9.07;;
71141;SDS011;58808;59.366;17.970;2022-10-31T10:30:39;16.80;;;9.18;;
71141;SDS011;58808;59.366;17.970;2022-10-31T10:33:14;15.35;;;8.90;;
71141;SDS011;58808;59.366;17.970;2022-10-31T10:35:54;15.82;;;8.63;;
71141;SDS011;58808;59.366;17.970;2022-10-31T10:38:26;17.48;;;9.07;;
71141;SDS011;58808;59.366;17.970;2022-10-31T10:41:18;17.08;;;8.85;;
71141;SDS011;58808;59.366;17.970;2022-10-31T10:46:18;15.02;;;9.25;;
71141;SDS011;58808;59.366;17.970;2022-10-31T10:49:19;16.65;;;8.90;;
71141;SDS011;58808;59.366;17.970;2022-10-31T10:54:30;14.63;;;8.48;;
71141;SDS011;58808;59.366;17.970;2022-10-31T10:59:37;13.82;;;8.30;;
71141;SDS011;58808;59.366;17.970;2022-10-31T11:02:09;15.32;;;8.77;;
71141;SDS011;58808;59.366;17.970;2022-10-31T11:04:56;19.13;;;9.20;;
71141;SDS011;58808;59.366;17.970;2022-10-31T11:07:23;12.68;;;8.43;;
71141;SDS011;58808;59.366;17.970;2022-10-31T11:09:49;15.13;;;8.93;;
71141;SDS011;58808;59.366;17.970;2022-10-31T11:14:58;15.38;;;8.52;;
71141;SDS011;58808;59.366;17.970;2022-10-31T11:17:38;13.77;;;7.70;;
71141;SDS011;58808;59.366;17.970;2022-10-31T11:22:48;13.23;;;7.82;;
71141;SDS011;58808;59.366;17.970;2022-10-31T11:25:29;15.15;;;8.60;;
71141;SDS011;58808;59.366;17.970;2022-10-31T11:28:02;12.52;;;7.60;;
71141;SDS011;58808;59.366;17.970;2022-10-31T11:30:42;16.70;;;8.48;;
71141;SDS011;58808;59.366;17.970;2022-10-31T11:35:51;12.68;;;7.13;;
71141;SDS011;58808;59.366;17.970;2022-10-31T11:38:19;12.23;;;7.50;;
71141;SDS011;58808;59.366;17.970;2022-10-31T11:40:58;11.10;;;7.13;;
71141;SDS011;58808;59.366;17.970;2022-10-31T11:43:33;12.77;;;6.90;;
71141;SDS011;58808;59.366;17.970;2022-10-31T11:45:59;12.80;;;6.35;;
71141;SDS011;58808;59.366;17.970;2022-10-31T11:48:36;9.32;;;6.20;;
71141;SDS011;58808;59.366;17.970;2022-10-31T11:51:03;9.23;;;5.70;;
71141;SDS011;58808;59.366;17.970;2022-10-31T11:53:30;13.02;;;5.57;;
71141;SDS011;58808;59.366;17.970;2022-10-31T11:58:35;9.68;;;5.13;;
71141;SDS011;58808;59.366;17.970;2022-10-31T12:01:01;10.88;;;5.20;;
71141;SDS011;58808;59.366;17.970;2022-10-31T12:03:29;9.13;;;5.38;;
71141;SDS011;58808;59.366;17.970;2022-10-31T12:06:24;8.48;;;5.43;;
71141;SDS011;58808;59.366;17.970;2022-10-31T12:08:56;11.00;;;5.13;;
71141;SDS011;58808;59.366;17.970;2022-10-31T12:14:17;9.65;;;5.15;;
71141;SDS011;58808;59.366;17.970;2022-10-31T12:23:08;10.00;;;5.10;;
71141;SDS011;58808;59.366;17.970;2022-10-31T12:25:50;12.32;;;5.15;;
71141;SDS011;58808;59.366;17.970;2022-10-31T12:28:50;6.30;;;4.50;;
71141;SDS011;58808;59.366;17.970;2022-10-31T12:31:18;9.70;;;4.75;;
71141;SDS011;58808;59.366;17.970;2022-10-31T12:36:38;8.70;;;5.28;;
71141;SDS011;58808;59.366;17.970;2022-10-31T12:41:56;10.60;;;5.22;;
71141;SDS011;58808;59.366;17.970;2022-10-31T12:48:02;12.07;;;4.90;;
71141;SDS011;58808;59.366;17.970;2022-10-31T12:58:26;12.75;;;4.38;;
71141;SDS011;58808;59.366;17.970;2022-10-31T13:01:13;7.53;;;4.13;;
71141;SDS011;58808;59.366;17.970;2022-10-31T13:03:55;7.95;;;4.40;;
71141;SDS011;58808;59.366;17.970;2022-10-31T13:06:29;12.13;;;4.68;;
71141;SDS011;58808;59.366;17.970;2022-10-31T13:09:10;9.20;;;4.90;;
71141;SDS011;58808;59.366;17.970;2022-10-31T13:11:42;10.38;;;4.97;;
71141;SDS011;58808;59.366;17.970;2022-10-31T13:14:29;9.23;;;4.78;;
71141;SDS011;58808;59.366;17.970;2022-10-31T13:17:00;11.45;;;4.50;;
71141;SDS011;58808;59.366;17.970;2022-10-31T13:22:06;10.20;;;5.65;;
71141;SDS011;58808;59.366;17.970;2022-10-31T13:24:38;10.07;;;4.78;;
71141;SDS011;58808;59.366;17.970;2022-10-31T13:27:13;10.32;;;4.97;;
71141;SDS011;58808;59.366;17.970;2022-10-31T13:29:58;9.88;;;5.30;;
71141;SDS011;58808;59.366;17.970;2022-10-31T13:40:44;8.73;;;3.80;;
71141;SDS011;58808;59.366;17.970;2022-10-31T13:46:25;11.77;;;4.60;;
71141;SDS011;58808;59.366;17.970;2022-10-31T13:48:56;12.02;;;4.38;;
71141;SDS011;58808;59.366;17.970;2022-10-31T13:51:26;6.55;;;4.20;;
71141;SDS011;58808;59.366;17.970;2022-10-31T13:56:25;8.30;;;3.75;;
71141;SDS011;58808;59.366;17.970;2022-10-31T13:58:57;10.38;;;3.78;;
71141;SDS011;58808;59.366;17.970;2022-10-31T14:01:25;6.88;;;3.63;;
71141;SDS011;58808;59.366;17.970;2022-10-31T14:03:59;9.65;;;4.22;;
71141;SDS011;58808;59.366;17.970;2022-10-31T14:06:51;7.75;;;4.13;;
71141;SDS011;58808;59.366;17.970;2022-10-31T14:09:27;11.52;;;4.13;;
71141;SDS011;58808;59.366;17.970;2022-10-31T14:11:55;8.52;;;3.65;;
71141;SDS011;58808;59.366;17.970;2022-10-31T14:14:26;8.32;;;3.40;;
71141;SDS011;58808;59.366;17.970;2022-10-31T14:16:57;5.40;;;3.88;;
71141;SDS011;58808;59.366;17.970;2022-10-31T14:19:24;19.27;;;3.97;;
71141;SDS011;58808;59.366;17.970;2022-10-31T14:21:50;10.18;;;3.45;;
71141;SDS011;58808;59.366;17.970;2022-10-31T14:26:52;9.40;;;4.25;;
71141;SDS011;58808;59.366;17.970;2022-10-31T14:29:29;9.40;;;3.60;;
71141;SDS011;58808;59.366;17.970;2022-10-31T14:32:04;7.30;;;3.78;;
71141;SDS011;58808;59.366;17.970;2022-10-31T14:34:40;9.00;;;3.92;;
71141;SDS011;58808;59.366;17.970;2022-10-31T14:45:19;12.30;;;3.80;;
71141;SDS011;58808;59.366;17.970;2022-10-31T14:50:59;7.95;;;3.63;;
71141;SDS011;58808;59.366;17.970;2022-10-31T14:53:45;10.85;;;3.90;;
71141;SDS011;58808;59.366;17.970;2022-10-31T14:56:20;9.02;;;3.72;;
71141;SDS011;58808;59.366;17.970;2022-10-31T14:58:50;9.30;;;3.80;;
71141;SDS011;58808;59.366;17.970;2022-10-31T15:03:48;6.38;;;3.60;;
71141;SDS011;58808;59.366;17.970;2022-10-31T15:06:14;8.57;;;3.38;;
71141;SDS011;58808;59.366;17.970;2022-10-31T15:08:52;7.32;;;4.07;;
71141;SDS011;58808;59.366;17.970;2022-10-31T15:13:53;8.40;;;4.03;;
71141;SDS011;58808;59.366;17.970;2022-10-31T15:16:25;10.90;;;3.70;;
71141;SDS011;58808;59.366;17.970;2022-10-31T15:18:56;8.60;;;4.10;;
71141;SDS011;58808;59.366;17.970;2022-10-31T15:21:25;6.20;;;3.70;;
71141;SDS011;58808;59.366;17.970;2022-10-31T15:23:56;6.80;;;3.67;;
71141;SDS011;58808;59.366;17.970;2022-10-31T15:26:25;10.85;;;3.83;;
71141;SDS011;58808;59.366;17.970;2022-10-31T15:28:57;11.70;;;4.03;;
71141;SDS011;58808;59.366;17.970;2022-10-31T15:31:27;8.98;;;3.53;;
71141;SDS011;58808;59.366;17.970;2022-10-31T15:33:53;7.35;;;4.00;;
71141;SDS011;58808;59.366;17.970;2022-10-31T15:36:24;9.50;;;3.55;;
71141;SDS011;58808;59.366;17.970;2022-10-31T15:38:50;6.30;;;3.33;;
71141;SDS011;58808;59.366;17.970;2022-10-31T15:43:52;6.00;;;3.75;;
71141;SDS011;58808;59.366;17.970;2022-10-31T15:46:19;6.85;;;3.75;;
71141;SDS011;58808;59.366;17.970;2022-10-31T15:48:45;6.10;;;3.20;;
71141;SDS011;58808;59.366;17.970;2022-10-31T15:51:12;6.05;;;3.50;;
71141;SDS011;58808;59.366;17.970;2022-10-31T15:53:56;8.68;;;3.53;;
71141;SDS011;58808;59.366;17.970;2022-10-31T15:56:26;6.03;;;3.20;;
71141;SDS011;58808;59.366;17.970;2022-10-31T15:58:55;7.45;;;3.00;;
71141;SDS011;58808;59.366;17.970;2022-10-31T16:01:24;3.90;;;2.65;;
71141;SDS011;58808;59.366;17.970;2022-10-31T16:03:58;8.20;;;3.60;;
71141;SDS011;58808;59.366;17.970;2022-10-31T16:06:44;7.53;;;3.00;;
71141;SDS011;58808;59.366;17.970;2022-10-31T16:09:21;8.18;;;3.28;;
71141;SDS011;58808;59.366;17.970;2022-10-31T16:11:48;7.05;;;3.13;;
71141;SDS011;58808;59.366;17.970;2022-10-31T16:14:15;9.48;;;3.42;;
71141;SDS011;58808;59.366;17.970;2022-10-31T16:16:46;5.32;;;3.13;;
71141;SDS011;58808;59.366;17.970;2022-10-31T16:22:09;7.53;;;3.65;;
71141;SDS011;58808;59.366;17.970;2022-10-31T16:24:57;8.80;;;3.78;;
71141;SDS011;58808;59.366;17.970;2022-10-31T16:30:00;7.28;;;3.53;;
71141;SDS011;58808;59.366;17.970;2022-10-31T16:32:30;8.82;;;3.78;;
71141;SDS011;58808;59.366;17.970;2022-10-31T16:35:01;4.85;;;3.30;;
71141;SDS011;58808;59.366;17.970;2022-10-31T16:37:33;10.27;;;3.70;;
71141;SDS011;58808;59.366;17.970;2022-10-31T16:39:59;8.60;;;3.65;;
71141;SDS011;58808;59.366;17.970;2022-10-31T16:42:24;6.38;;;3.63;;
71141;SDS011;58808;59.366;17.970;2022-10-31T16:44:51;8.77;;;3.67;;
71141;SDS011;58808;59.366;17.970;2022-10-31T16:47:17;8.27;;;3.35;;
71141;SDS011;58808;59.366;17.970;2022-10-31T16:49:44;6.55;;;3.72;;
71141;SDS011;58808;59.366;17.970;2022-10-31T16:52:13;8.80;;;3.67;;
71141;SDS011;58808;59.366;17.970;2022-10-31T16:54:40;8.02;;;3.95;;
71141;SDS011;58808;59.366;17.970;2022-10-31T16:57:05;9.85;;;3.85;;
71141;SDS011;58808;59.366;17.970;2022-10-31T16:59:37;6.97;;;3.85;;
71141;SDS011;58808;59.366;17.970;2022-10-31T17:02:11;6.22;;;3.58;;